sensor_id;sensor_type;location;lat;lon;timestamp;P1;durP1;ratioP1;P2;durP2;ratioP2
63536;SDS011;49686;51.880;5.632;2023-07-30T00:02:22;8.38;;;2.35;;
63536;SDS011;49686;51.880;5.632;2023-07-30T00:04:49;5.65;;;2.70;;
63536;SDS011;49686;51.880;5.632;2023-07-30T00:07:16;7.20;;;2.30;;
63536;SDS011;49686;51.880;5.632;2023-07-30T00:09:44;5.32;;;1.92;;
63536;SDS011;49686;51.880;5.632;2023-07-30T00:12:10;6.43;;;2.20;;
63536;SDS011;49686;51.880;5.632;2023-07-30T00:14:39;6.20;;;2.40;;
63536;SDS011;49686;51.880;5.632;2023-07-30T00:17:05;8.32;;;2.58;;
63536;SDS011;49686;51.880;5.632;2023-07-30T00:19:32;5.07;;;2.00;;
63536;SDS011;49686;51.880;5.632;2023-07-30T00:21:59;7.63;;;2.30;;
63536;SDS011;49686;51.880;5.632;2023-07-30T00:24:26;6.95;;;2.55;;
63536;SDS011;49686;51.880;5.632;2023-07-30T00:26:53;6.38;;;2.50;;
63536;SDS011;49686;51.880;5.632;2023-07-30T00:29:19;5.30;;;2.00;;
63536;SDS011;49686;51.880;5.632;2023-07-30T00:31:47;4.90;;;2.20;;
63536;SDS011;49686;51.880;5.632;2023-07-30T00:34:14;4.90;;;1.92;;
63536;SDS011;49686;51.880;5.632;2023-07-30T00:36:41;5.43;;;1.88;;
63536;SDS011;49686;51.880;5.632;2023-07-30T00:39:08;7.45;;;2.63;;
63536;SDS011;49686;51.880;5.632;2023-07-30T00:41:35;9.60;;;2.70;;
63536;SDS011;49686;51.880;5.632;2023-07-30T00:44:02;5.78;;;2.83;;
63536;SDS011;49686;51.880;5.632;2023-07-30T00:46:29;5.97;;;2.10;;
63536;SDS011;49686;51.880;5.632;2023-07-30T00:48:58;7.78;;;2.60;;
63536;SDS011;49686;51.880;5.632;2023-07-30T00:51:25;5.20;;;1.98;;
63536;SDS011;49686;51.880;5.632;2023-07-30T00:53:54;6.85;;;2.42;;
63536;SDS011;49686;51.880;5.632;2023-07-30T00:56:21;5.53;;;2.10;;
63536;SDS011;49686;51.880;5.632;2023-07-30T00:58:48;6.80;;;3.30;;
63536;SDS011;49686;51.880;5.632;2023-07-30T01:01:15;5.30;;;2.35;;
63536;SDS011;49686;51.880;5.632;2023-07-30T01:03:42;6.75;;;2.13;;
63536;SDS011;49686;51.880;5.632;2023-07-30T01:06:10;5.70;;;2.72;;
63536;SDS011;49686;51.880;5.632;2023-07-30T01:08:37;10.30;;;2.75;;
63536;SDS011;49686;51.880;5.632;2023-07-30T01:11:04;9.77;;;2.90;;
63536;SDS011;49686;51.880;5.632;2023-07-30T01:13:32;9.90;;;3.58;;
63536;SDS011;49686;51.880;5.632;2023-07-30T01:16:00;10.98;;;3.08;;
63536;SDS011;49686;51.880;5.632;2023-07-30T01:18:27;5.47;;;2.95;;
63536;SDS011;49686;51.880;5.632;2023-07-30T01:20:55;8.07;;;2.97;;
63536;SDS011;49686;51.880;5.632;2023-07-30T01:23:24;7.32;;;3.20;;
63536;SDS011;49686;51.880;5.632;2023-07-30T01:25:52;7.60;;;3.10;;
63536;SDS011;49686;51.880;5.632;2023-07-30T01:28:27;6.10;;;2.88;;
63536;SDS011;49686;51.880;5.632;2023-07-30T01:30:55;6.82;;;3.00;;
63536;SDS011;49686;51.880;5.632;2023-07-30T01:33:26;7.07;;;3.35;;
63536;SDS011;49686;51.880;5.632;2023-07-30T01:35:53;4.95;;;2.80;;
63536;SDS011;49686;51.880;5.632;2023-07-30T01:38:23;9.13;;;3.53;;
63536;SDS011;49686;51.880;5.632;2023-07-30T01:40:51;7.97;;;3.08;;
63536;SDS011;49686;51.880;5.632;2023-07-30T01:43:18;6.00;;;2.65;;
63536;SDS011;49686;51.880;5.632;2023-07-30T01:45:45;9.25;;;2.80;;
63536;SDS011;49686;51.880;5.632;2023-07-30T01:48:12;9.68;;;3.22;;
63536;SDS011;49686;51.880;5.632;2023-07-30T01:50:39;8.95;;;3.58;;
63536;SDS011;49686;51.880;5.632;2023-07-30T01:53:07;8.35;;;3.35;;
63536;SDS011;49686;51.880;5.632;2023-07-30T01:55:34;12.20;;;3.92;;
63536;SDS011;49686;51.880;5.632;2023-07-30T01:58:01;7.50;;;3.08;;
63536;SDS011;49686;51.880;5.632;2023-07-30T02:00:28;9.45;;;3.42;;
63536;SDS011;49686;51.880;5.632;2023-07-30T02:02:55;7.40;;;3.13;;
63536;SDS011;49686;51.880;5.632;2023-07-30T02:05:21;8.77;;;2.92;;
63536;SDS011;49686;51.880;5.632;2023-07-30T02:07:48;9.98;;;3.50;;
63536;SDS011;49686;51.880;5.632;2023-07-30T02:10:16;10.35;;;3.33;;
63536;SDS011;49686;51.880;5.632;2023-07-30T02:12:43;11.07;;;3.45;;
63536;SDS011;49686;51.880;5.632;2023-07-30T02:15:10;8.57;;;3.00;;
63536;SDS011;49686;51.880;5.632;2023-07-30T02:17:37;5.10;;;2.45;;
63536;SDS011;49686;51.880;5.632;2023-07-30T02:20:04;7.95;;;3.10;;
63536;SDS011;49686;51.880;5.632;2023-07-30T02:22:32;11.88;;;4.20;;
63536;SDS011;49686;51.880;5.632;2023-07-30T02:24:59;14.93;;;3.80;;
63536;SDS011;49686;51.880;5.632;2023-07-30T02:27:27;11.30;;;3.33;;
63536;SDS011;49686;51.880;5.632;2023-07-30T02:29:54;11.30;;;3.80;;
63536;SDS011;49686;51.880;5.632;2023-07-30T02:32:21;12.02;;;4.18;;
63536;SDS011;49686;51.880;5.632;2023-07-30T02:34:48;10.88;;;3.50;;
63536;SDS011;49686;51.880;5.632;2023-07-30T02:37:15;7.70;;;3.70;;
63536;SDS011;49686;51.880;5.632;2023-07-30T02:39:41;11.05;;;3.72;;
63536;SDS011;49686;51.880;5.632;2023-07-30T02:42:08;8.25;;;4.50;;
63536;SDS011;49686;51.880;5.632;2023-07-30T02:44:36;9.95;;;4.10;;
63536;SDS011;49686;51.880;5.632;2023-07-30T02:47:04;8.80;;;3.75;;
63536;SDS011;49686;51.880;5.632;2023-07-30T02:49:31;15.15;;;4.63;;
63536;SDS011;49686;51.880;5.632;2023-07-30T02:51:58;12.63;;;4.32;;
63536;SDS011;49686;51.880;5.632;2023-07-30T02:54:24;10.77;;;5.63;;
63536;SDS011;49686;51.880;5.632;2023-07-30T02:56:51;16.90;;;5.95;;
63536;SDS011;49686;51.880;5.632;2023-07-30T02:59:18;12.07;;;3.78;;
63536;SDS011;49686;51.880;5.632;2023-07-30T03:01:46;14.27;;;4.78;;
63536;SDS011;49686;51.880;5.632;2023-07-30T03:04:13;12.45;;;4.75;;
63536;SDS011;49686;51.880;5.632;2023-07-30T03:06:40;14.73;;;5.15;;
63536;SDS011;49686;51.880;5.632;2023-07-30T03:09:06;13.45;;;4.88;;
63536;SDS011;49686;51.880;5.632;2023-07-30T03:11:33;13.88;;;5.35;;
63536;SDS011;49686;51.880;5.632;2023-07-30T03:14:01;22.35;;;5.95;;
63536;SDS011;49686;51.880;5.632;2023-07-30T03:16:28;18.73;;;5.30;;
63536;SDS011;49686;51.880;5.632;2023-07-30T03:18:56;14.60;;;5.35;;
63536;SDS011;49686;51.880;5.632;2023-07-30T03:21:23;12.57;;;5.80;;
63536;SDS011;49686;51.880;5.632;2023-07-30T03:23:49;18.55;;;5.95;;
63536;SDS011;49686;51.880;5.632;2023-07-30T03:26:16;13.02;;;4.95;;
63536;SDS011;49686;51.880;5.632;2023-07-30T03:28:43;15.05;;;5.78;;
63536;SDS011;49686;51.880;5.632;2023-07-30T03:31:10;13.98;;;5.60;;
63536;SDS011;49686;51.880;5.632;2023-07-30T03:33:37;14.77;;;5.47;;
63536;SDS011;49686;51.880;5.632;2023-07-30T03:36:06;15.95;;;5.18;;
63536;SDS011;49686;51.880;5.632;2023-07-30T03:38:33;15.75;;;5.50;;
63536;SDS011;49686;51.880;5.632;2023-07-30T03:40:59;13.25;;;5.38;;
63536;SDS011;49686;51.880;5.632;2023-07-30T03:43:26;11.90;;;5.60;;
63536;SDS011;49686;51.880;5.632;2023-07-30T03:45:53;21.85;;;6.30;;
63536;SDS011;49686;51.880;5.632;2023-07-30T03:48:20;22.08;;;7.05;;
63536;SDS011;49686;51.880;5.632;2023-07-30T03:50:47;14.23;;;6.40;;
63536;SDS011;49686;51.880;5.632;2023-07-30T03:53:15;17.98;;;6.55;;
63536;SDS011;49686;51.880;5.632;2023-07-30T03:55:42;17.52;;;6.50;;
63536;SDS011;49686;51.880;5.632;2023-07-30T03:58:08;17.70;;;6.82;;
63536;SDS011;49686;51.880;5.632;2023-07-30T04:00:35;14.68;;;6.00;;
63536;SDS011;49686;51.880;5.632;2023-07-30T04:03:02;16.42;;;6.40;;
63536;SDS011;49686;51.880;5.632;2023-07-30T04:05:29;19.92;;;6.72;;
63536;SDS011;49686;51.880;5.632;2023-07-30T04:07:56;24.40;;;7.50;;
63536;SDS011;49686;51.880;5.632;2023-07-30T04:10:24;18.55;;;6.95;;
63536;SDS011;49686;51.880;5.632;2023-07-30T04:12:51;15.27;;;6.13;;
63536;SDS011;49686;51.880;5.632;2023-07-30T04:15:18;17.52;;;7.50;;
63536;SDS011;49686;51.880;5.632;2023-07-30T04:17:45;18.08;;;6.88;;
63536;SDS011;49686;51.880;5.632;2023-07-30T04:20:12;20.17;;;6.65;;
63536;SDS011;49686;51.880;5.632;2023-07-30T04:22:39;16.67;;;7.30;;
63536;SDS011;49686;51.880;5.632;2023-07-30T04:25:06;24.25;;;7.22;;
63536;SDS011;49686;51.880;5.632;2023-07-30T04:27:34;16.90;;;6.88;;
63536;SDS011;49686;51.880;5.632;2023-07-30T04:30:01;13.25;;;6.90;;
63536;SDS011;49686;51.880;5.632;2023-07-30T04:32:28;16.13;;;6.03;;
63536;SDS011;49686;51.880;5.632;2023-07-30T04:34:55;15.73;;;6.82;;
63536;SDS011;49686;51.880;5.632;2023-07-30T04:37:21;15.18;;;6.22;;
63536;SDS011;49686;51.880;5.632;2023-07-30T04:39:48;17.48;;;6.80;;
63536;SDS011;49686;51.880;5.632;2023-07-30T04:42:15;15.98;;;7.53;;
63536;SDS011;49686;51.880;5.632;2023-07-30T04:44:44;18.73;;;7.13;;
63536;SDS011;49686;51.880;5.632;2023-07-30T04:47:10;23.67;;;7.85;;
63536;SDS011;49686;51.880;5.632;2023-07-30T04:49:37;20.52;;;6.57;;
63536;SDS011;49686;51.880;5.632;2023-07-30T04:52:04;17.10;;;7.20;;
63536;SDS011;49686;51.880;5.632;2023-07-30T04:54:31;20.13;;;7.68;;
63536;SDS011;49686;51.880;5.632;2023-07-30T04:56:58;19.08;;;7.78;;
63536;SDS011;49686;51.880;5.632;2023-07-30T04:59:25;17.65;;;6.95;;
63536;SDS011;49686;51.880;5.632;2023-07-30T05:01:53;19.45;;;7.55;;
63536;SDS011;49686;51.880;5.632;2023-07-30T05:04:20;18.27;;;7.63;;
63536;SDS011;49686;51.880;5.632;2023-07-30T05:06:47;16.33;;;7.35;;
63536;SDS011;49686;51.880;5.632;2023-07-30T05:11:42;16.92;;;7.20;;
63536;SDS011;49686;51.880;5.632;2023-07-30T05:14:10;22.13;;;9.02;;
63536;SDS011;49686;51.880;5.632;2023-07-30T05:16:36;23.90;;;8.52;;
63536;SDS011;49686;51.880;5.632;2023-07-30T05:19:05;24.58;;;9.07;;
63536;SDS011;49686;51.880;5.632;2023-07-30T05:21:31;20.63;;;7.93;;
63536;SDS011;49686;51.880;5.632;2023-07-30T05:23:58;21.90;;;8.40;;
63536;SDS011;49686;51.880;5.632;2023-07-30T05:26:25;17.90;;;8.00;;
63536;SDS011;49686;51.880;5.632;2023-07-30T05:28:52;16.92;;;8.25;;
63536;SDS011;49686;51.880;5.632;2023-07-30T05:31:19;21.13;;;8.20;;
63536;SDS011;49686;51.880;5.632;2023-07-30T05:33:46;23.58;;;8.35;;
63536;SDS011;49686;51.880;5.632;2023-07-30T05:36:14;21.95;;;8.32;;
63536;SDS011;49686;51.880;5.632;2023-07-30T05:38:41;20.85;;;8.95;;
63536;SDS011;49686;51.880;5.632;2023-07-30T05:41:08;19.80;;;8.55;;
63536;SDS011;49686;51.880;5.632;2023-07-30T05:43:34;16.13;;;8.45;;
63536;SDS011;49686;51.880;5.632;2023-07-30T05:46:01;14.85;;;6.88;;
63536;SDS011;49686;51.880;5.632;2023-07-30T05:48:28;19.30;;;7.57;;
63536;SDS011;49686;51.880;5.632;2023-07-30T05:50:55;18.80;;;8.43;;
63536;SDS011;49686;51.880;5.632;2023-07-30T05:53:23;21.35;;;9.10;;
63536;SDS011;49686;51.880;5.632;2023-07-30T05:55:50;18.17;;;7.75;;
63536;SDS011;49686;51.880;5.632;2023-07-30T05:58:17;17.15;;;8.18;;
63536;SDS011;49686;51.880;5.632;2023-07-30T06:00:44;23.25;;;8.30;;
63536;SDS011;49686;51.880;5.632;2023-07-30T06:03:11;23.77;;;8.45;;
63536;SDS011;49686;51.880;5.632;2023-07-30T06:05:41;17.77;;;8.60;;
63536;SDS011;49686;51.880;5.632;2023-07-30T06:08:08;21.13;;;8.70;;
63536;SDS011;49686;51.880;5.632;2023-07-30T06:10:37;15.55;;;8.27;;
63536;SDS011;49686;51.880;5.632;2023-07-30T06:13:04;16.15;;;7.18;;
63536;SDS011;49686;51.880;5.632;2023-07-30T06:15:31;21.95;;;8.48;;
63536;SDS011;49686;51.880;5.632;2023-07-30T06:17:58;23.30;;;9.40;;
63536;SDS011;49686;51.880;5.632;2023-07-30T06:20:27;16.75;;;7.95;;
63536;SDS011;49686;51.880;5.632;2023-07-30T06:22:54;14.00;;;7.15;;
63536;SDS011;49686;51.880;5.632;2023-07-30T06:25:20;18.75;;;8.38;;
63536;SDS011;49686;51.880;5.632;2023-07-30T06:27:51;24.10;;;8.63;;
63536;SDS011;49686;51.880;5.632;2023-07-30T06:30:18;19.65;;;9.23;;
63536;SDS011;49686;51.880;5.632;2023-07-30T06:32:45;18.83;;;8.20;;
63536;SDS011;49686;51.880;5.632;2023-07-30T06:35:12;19.52;;;8.05;;
63536;SDS011;49686;51.880;5.632;2023-07-30T06:37:39;15.73;;;7.45;;
63536;SDS011;49686;51.880;5.632;2023-07-30T06:40:06;20.13;;;8.77;;
63536;SDS011;49686;51.880;5.632;2023-07-30T06:42:33;15.33;;;8.50;;
63536;SDS011;49686;51.880;5.632;2023-07-30T06:45:02;17.63;;;7.80;;
63536;SDS011;49686;51.880;5.632;2023-07-30T06:47:29;19.88;;;9.38;;
63536;SDS011;49686;51.880;5.632;2023-07-30T06:49:56;23.58;;;9.48;;
63536;SDS011;49686;51.880;5.632;2023-07-30T06:52:24;24.85;;;10.20;;
63536;SDS011;49686;51.880;5.632;2023-07-30T06:54:51;22.35;;;9.32;;
63536;SDS011;49686;51.880;5.632;2023-07-30T06:57:17;21.63;;;9.88;;
63536;SDS011;49686;51.880;5.632;2023-07-30T06:59:44;16.45;;;8.25;;
63536;SDS011;49686;51.880;5.632;2023-07-30T07:02:13;16.95;;;9.00;;
63536;SDS011;49686;51.880;5.632;2023-07-30T07:04:40;22.45;;;9.30;;
63536;SDS011;49686;51.880;5.632;2023-07-30T07:07:06;20.00;;;9.10;;
63536;SDS011;49686;51.880;5.632;2023-07-30T07:09:33;14.82;;;8.18;;
63536;SDS011;49686;51.880;5.632;2023-07-30T07:12:00;16.40;;;8.23;;
63536;SDS011;49686;51.880;5.632;2023-07-30T07:14:27;20.92;;;8.23;;
63536;SDS011;49686;51.880;5.632;2023-07-30T07:16:54;18.55;;;7.60;;
63536;SDS011;49686;51.880;5.632;2023-07-30T07:19:23;16.20;;;7.68;;
63536;SDS011;49686;51.880;5.632;2023-07-30T07:21:50;16.98;;;8.07;;
63536;SDS011;49686;51.880;5.632;2023-07-30T07:24:16;15.85;;;7.95;;
63536;SDS011;49686;51.880;5.632;2023-07-30T07:26:43;14.15;;;6.50;;
63536;SDS011;49686;51.880;5.632;2023-07-30T07:29:10;12.40;;;5.55;;
63536;SDS011;49686;51.880;5.632;2023-07-30T07:31:37;19.60;;;6.80;;
63536;SDS011;49686;51.880;5.632;2023-07-30T07:34:04;17.90;;;5.88;;
63536;SDS011;49686;51.880;5.632;2023-07-30T07:36:33;16.52;;;6.72;;
63536;SDS011;49686;51.880;5.632;2023-07-30T07:38:59;14.10;;;6.30;;
63536;SDS011;49686;51.880;5.632;2023-07-30T07:41:26;16.13;;;6.25;;
63536;SDS011;49686;51.880;5.632;2023-07-30T07:43:53;15.57;;;6.07;;
63536;SDS011;49686;51.880;5.632;2023-07-30T07:46:20;21.08;;;5.78;;
63536;SDS011;49686;51.880;5.632;2023-07-30T07:48:47;17.33;;;6.60;;
63536;SDS011;49686;51.880;5.632;2023-07-30T07:51:14;23.10;;;6.55;;
63536;SDS011;49686;51.880;5.632;2023-07-30T07:53:42;14.15;;;5.50;;
63536;SDS011;49686;51.880;5.632;2023-07-30T07:56:09;18.38;;;5.75;;
63536;SDS011;49686;51.880;5.632;2023-07-30T07:58:36;21.27;;;6.40;;
63536;SDS011;49686;51.880;5.632;2023-07-30T08:01:03;13.63;;;5.68;;
63536;SDS011;49686;51.880;5.632;2023-07-30T08:03:30;16.40;;;6.93;;
63536;SDS011;49686;51.880;5.632;2023-07-30T08:05:57;20.70;;;6.40;;
63536;SDS011;49686;51.880;5.632;2023-07-30T08:08:24;15.45;;;6.00;;
63536;SDS011;49686;51.880;5.632;2023-07-30T08:10:53;15.33;;;5.93;;
63536;SDS011;49686;51.880;5.632;2023-07-30T08:13:20;18.80;;;6.20;;
63536;SDS011;49686;51.880;5.632;2023-07-30T08:15:47;17.50;;;5.57;;
63536;SDS011;49686;51.880;5.632;2023-07-30T08:18:14;13.50;;;6.32;;
63536;SDS011;49686;51.880;5.632;2023-07-30T08:20:41;17.88;;;5.95;;
63536;SDS011;49686;51.880;5.632;2023-07-30T08:23:10;17.30;;;5.57;;
63536;SDS011;49686;51.880;5.632;2023-07-30T08:25:36;13.80;;;5.55;;
63536;SDS011;49686;51.880;5.632;2023-07-30T08:28:05;17.88;;;5.82;;
63536;SDS011;49686;51.880;5.632;2023-07-30T08:30:31;18.17;;;6.50;;
63536;SDS011;49686;51.880;5.632;2023-07-30T08:32:58;16.40;;;5.78;;
63536;SDS011;49686;51.880;5.632;2023-07-30T08:35:25;12.50;;;5.22;;
63536;SDS011;49686;51.880;5.632;2023-07-30T08:37:52;14.48;;;5.28;;
63536;SDS011;49686;51.880;5.632;2023-07-30T08:40:20;14.20;;;4.45;;
63536;SDS011;49686;51.880;5.632;2023-07-30T08:42:47;10.63;;;3.72;;
63536;SDS011;49686;51.880;5.632;2023-07-30T08:45:16;12.60;;;4.22;;
63536;SDS011;49686;51.880;5.632;2023-07-30T08:47:43;12.23;;;4.10;;
63536;SDS011;49686;51.880;5.632;2023-07-30T08:50:11;12.77;;;3.90;;
63536;SDS011;49686;51.880;5.632;2023-07-30T08:52:38;12.20;;;3.67;;
63536;SDS011;49686;51.880;5.632;2023-07-30T08:55:06;9.07;;;3.10;;
63536;SDS011;49686;51.880;5.632;2023-07-30T08:57:33;17.48;;;4.45;;
63536;SDS011;49686;51.880;5.632;2023-07-30T09:00:02;10.57;;;3.53;;
63536;SDS011;49686;51.880;5.632;2023-07-30T09:02:34;9.70;;;3.30;;
63536;SDS011;49686;51.880;5.632;2023-07-30T09:05:05;14.45;;;3.85;;
63536;SDS011;49686;51.880;5.632;2023-07-30T09:07:33;12.32;;;4.07;;
63536;SDS011;49686;51.880;5.632;2023-07-30T09:10:00;14.23;;;3.78;;
63536;SDS011;49686;51.880;5.632;2023-07-30T09:12:28;10.48;;;3.30;;
63536;SDS011;49686;51.880;5.632;2023-07-30T09:14:55;10.35;;;3.25;;
63536;SDS011;49686;51.880;5.632;2023-07-30T09:17:22;12.73;;;4.00;;
63536;SDS011;49686;51.880;5.632;2023-07-30T09:19:50;10.38;;;3.10;;
63536;SDS011;49686;51.880;5.632;2023-07-30T09:24:51;14.27;;;3.50;;
63536;SDS011;49686;51.880;5.632;2023-07-30T09:27:20;11.48;;;3.40;;
63536;SDS011;49686;51.880;5.632;2023-07-30T09:29:49;9.07;;;2.80;;
63536;SDS011;49686;51.880;5.632;2023-07-30T09:32:17;15.35;;;3.75;;
63536;SDS011;49686;51.880;5.632;2023-07-30T09:34:45;10.10;;;2.88;;
63536;SDS011;49686;51.880;5.632;2023-07-30T09:37:13;11.25;;;2.78;;
63536;SDS011;49686;51.880;5.632;2023-07-30T09:39:40;15.13;;;2.95;;
63536;SDS011;49686;51.880;5.632;2023-07-30T09:42:07;8.65;;;2.85;;
63536;SDS011;49686;51.880;5.632;2023-07-30T09:44:35;14.20;;;3.72;;
63536;SDS011;49686;51.880;5.632;2023-07-30T09:47:03;12.25;;;2.80;;
63536;SDS011;49686;51.880;5.632;2023-07-30T09:49:30;11.70;;;2.70;;
63536;SDS011;49686;51.880;5.632;2023-07-30T09:51:57;10.82;;;2.30;;
63536;SDS011;49686;51.880;5.632;2023-07-30T09:54:26;8.15;;;2.20;;
63536;SDS011;49686;51.880;5.632;2023-07-30T09:59:20;6.63;;;2.10;;
63536;SDS011;49686;51.880;5.632;2023-07-30T10:01:48;8.90;;;2.30;;
63536;SDS011;49686;51.880;5.632;2023-07-30T10:04:18;7.53;;;2.20;;
63536;SDS011;49686;51.880;5.632;2023-07-30T10:06:46;7.80;;;2.03;;
63536;SDS011;49686;51.880;5.632;2023-07-30T10:09:17;9.00;;;2.30;;
63536;SDS011;49686;51.880;5.632;2023-07-30T10:11:48;7.63;;;2.25;;
63536;SDS011;49686;51.880;5.632;2023-07-30T10:14:21;6.88;;;2.00;;
63536;SDS011;49686;51.880;5.632;2023-07-30T10:16:50;8.18;;;1.70;;
63536;SDS011;49686;51.880;5.632;2023-07-30T10:19:21;5.07;;;1.73;;
63536;SDS011;49686;51.880;5.632;2023-07-30T10:21:49;5.10;;;1.23;;
63536;SDS011;49686;51.880;5.632;2023-07-30T10:24:16;7.85;;;1.40;;
63536;SDS011;49686;51.880;5.632;2023-07-30T10:26:43;4.35;;;1.30;;
63536;SDS011;49686;51.880;5.632;2023-07-30T10:29:11;4.70;;;1.38;;
63536;SDS011;49686;51.880;5.632;2023-07-30T10:31:39;6.05;;;1.60;;
63536;SDS011;49686;51.880;5.632;2023-07-30T10:34:07;5.40;;;1.40;;
63536;SDS011;49686;51.880;5.632;2023-07-30T10:36:38;7.00;;;1.70;;
63536;SDS011;49686;51.880;5.632;2023-07-30T10:39:14;6.57;;;1.80;;
63536;SDS011;49686;51.880;5.632;2023-07-30T10:41:43;6.72;;;1.60;;
63536;SDS011;49686;51.880;5.632;2023-07-30T10:44:19;5.70;;;1.35;;
63536;SDS011;49686;51.880;5.632;2023-07-30T10:46:50;3.47;;;1.75;;
63536;SDS011;49686;51.880;5.632;2023-07-30T10:49:17;5.93;;;1.20;;
63536;SDS011;49686;51.880;5.632;2023-07-30T10:51:44;4.45;;;1.60;;
63536;SDS011;49686;51.880;5.632;2023-07-30T10:54:11;4.97;;;1.20;;
63536;SDS011;49686;51.880;5.632;2023-07-30T10:56:37;7.05;;;1.75;;
63536;SDS011;49686;51.880;5.632;2023-07-30T10:59:05;5.65;;;1.27;;
63536;SDS011;49686;51.880;5.632;2023-07-30T11:01:37;5.60;;;1.40;;
63536;SDS011;49686;51.880;5.632;2023-07-30T11:04:05;6.35;;;1.13;;
63536;SDS011;49686;51.880;5.632;2023-07-30T11:06:36;3.70;;;1.20;;
63536;SDS011;49686;51.880;5.632;2023-07-30T11:09:04;5.47;;;1.40;;
63536;SDS011;49686;51.880;5.632;2023-07-30T11:11:31;5.00;;;1.60;;
63536;SDS011;49686;51.880;5.632;2023-07-30T11:13:58;7.53;;;1.65;;
63536;SDS011;49686;51.880;5.632;2023-07-30T11:16:24;9.10;;;2.13;;
63536;SDS011;49686;51.880;5.632;2023-07-30T11:18:53;6.47;;;1.40;;
63536;SDS011;49686;51.880;5.632;2023-07-30T11:21:20;7.38;;;2.40;;
63536;SDS011;49686;51.880;5.632;2023-07-30T11:23:46;5.57;;;1.70;;
63536;SDS011;49686;51.880;5.632;2023-07-30T11:26:14;6.35;;;1.73;;
63536;SDS011;49686;51.880;5.632;2023-07-30T11:28:41;7.75;;;2.25;;
63536;SDS011;49686;51.880;5.632;2023-07-30T11:31:10;6.32;;;1.40;;
63536;SDS011;49686;51.880;5.632;2023-07-30T11:33:39;4.47;;;1.65;;
63536;SDS011;49686;51.880;5.632;2023-07-30T11:36:09;7.18;;;1.75;;
63536;SDS011;49686;51.880;5.632;2023-07-30T11:38:38;6.18;;;1.38;;
63536;SDS011;49686;51.880;5.632;2023-07-30T11:41:05;7.00;;;1.23;;
63536;SDS011;49686;51.880;5.632;2023-07-30T11:43:33;5.78;;;1.90;;
63536;SDS011;49686;51.880;5.632;2023-07-30T11:46:09;5.45;;;1.50;;
63536;SDS011;49686;51.880;5.632;2023-07-30T11:48:38;6.95;;;1.65;;
63536;SDS011;49686;51.880;5.632;2023-07-30T11:51:05;9.63;;;2.35;;
63536;SDS011;49686;51.880;5.632;2023-07-30T11:53:44;7.05;;;2.28;;
63536;SDS011;49686;51.880;5.632;2023-07-30T11:56:16;7.13;;;1.58;;
63536;SDS011;49686;51.880;5.632;2023-07-30T11:58:48;5.57;;;1.60;;
63536;SDS011;49686;51.880;5.632;2023-07-30T12:01:16;7.72;;;1.40;;
63536;SDS011;49686;51.880;5.632;2023-07-30T12:03:43;5.75;;;1.98;;
63536;SDS011;49686;51.880;5.632;2023-07-30T12:06:11;4.35;;;1.77;;
63536;SDS011;49686;51.880;5.632;2023-07-30T12:08:38;4.40;;;1.30;;
63536;SDS011;49686;51.880;5.632;2023-07-30T12:13:46;5.43;;;1.23;;
63536;SDS011;49686;51.880;5.632;2023-07-30T12:16:13;6.00;;;1.30;;
63536;SDS011;49686;51.880;5.632;2023-07-30T12:18:40;3.88;;;1.02;;
63536;SDS011;49686;51.880;5.632;2023-07-30T12:21:07;3.08;;;1.00;;
63536;SDS011;49686;51.880;5.632;2023-07-30T12:23:34;5.70;;;1.13;;
63536;SDS011;49686;51.880;5.632;2023-07-30T12:26:02;3.83;;;1.02;;
63536;SDS011;49686;51.880;5.632;2023-07-30T12:28:29;4.15;;;1.00;;
63536;SDS011;49686;51.880;5.632;2023-07-30T12:30:58;3.83;;;1.20;;
63536;SDS011;49686;51.880;5.632;2023-07-30T12:33:25;3.72;;;1.58;;
63536;SDS011;49686;51.880;5.632;2023-07-30T12:35:51;4.22;;;1.00;;
63536;SDS011;49686;51.880;5.632;2023-07-30T12:38:18;3.88;;;1.00;;
63536;SDS011;49686;51.880;5.632;2023-07-30T12:40:45;4.20;;;0.82;;
63536;SDS011;49686;51.880;5.632;2023-07-30T12:43:12;3.47;;;1.02;;
63536;SDS011;49686;51.880;5.632;2023-07-30T12:45:39;2.60;;;0.90;;
63536;SDS011;49686;51.880;5.632;2023-07-30T12:48:08;5.35;;;0.95;;
63536;SDS011;49686;51.880;5.632;2023-07-30T12:50:35;5.55;;;1.30;;
63536;SDS011;49686;51.880;5.632;2023-07-30T12:53:02;4.85;;;0.80;;
63536;SDS011;49686;51.880;5.632;2023-07-30T12:55:29;4.88;;;1.30;;
63536;SDS011;49686;51.880;5.632;2023-07-30T12:57:56;5.78;;;1.08;;
63536;SDS011;49686;51.880;5.632;2023-07-30T13:00:22;5.30;;;1.10;;
63536;SDS011;49686;51.880;5.632;2023-07-30T13:02:49;2.75;;;1.00;;
63536;SDS011;49686;51.880;5.632;2023-07-30T13:05:18;2.78;;;0.70;;
63536;SDS011;49686;51.880;5.632;2023-07-30T13:07:44;2.67;;;0.82;;
63536;SDS011;49686;51.880;5.632;2023-07-30T13:10:11;3.47;;;0.90;;
63536;SDS011;49686;51.880;5.632;2023-07-30T13:12:38;3.63;;;0.82;;
63536;SDS011;49686;51.880;5.632;2023-07-30T13:15:05;4.15;;;0.90;;
63536;SDS011;49686;51.880;5.632;2023-07-30T13:17:33;6.35;;;1.00;;
63536;SDS011;49686;51.880;5.632;2023-07-30T13:20:00;6.50;;;1.00;;
63536;SDS011;49686;51.880;5.632;2023-07-30T13:22:29;3.78;;;0.98;;
63536;SDS011;49686;51.880;5.632;2023-07-30T13:24:56;4.28;;;0.90;;
63536;SDS011;49686;51.880;5.632;2023-07-30T13:27:23;4.32;;;0.93;;
63536;SDS011;49686;51.880;5.632;2023-07-30T13:29:50;4.07;;;0.80;;
63536;SDS011;49686;51.880;5.632;2023-07-30T13:32:17;3.20;;;0.70;;
63536;SDS011;49686;51.880;5.632;2023-07-30T13:34:43;3.78;;;1.23;;
63536;SDS011;49686;51.880;5.632;2023-07-30T13:37:10;3.60;;;0.80;;
63536;SDS011;49686;51.880;5.632;2023-07-30T13:39:38;2.47;;;0.68;;
63536;SDS011;49686;51.880;5.632;2023-07-30T13:42:05;2.92;;;0.70;;
63536;SDS011;49686;51.880;5.632;2023-07-30T13:44:32;3.67;;;0.73;;
63536;SDS011;49686;51.880;5.632;2023-07-30T13:46:59;2.10;;;0.70;;
63536;SDS011;49686;51.880;5.632;2023-07-30T13:49:26;3.05;;;1.15;;
63536;SDS011;49686;51.880;5.632;2023-07-30T13:51:53;12.15;;;0.60;;
63536;SDS011;49686;51.880;5.632;2023-07-30T13:54:20;1.52;;;0.77;;
63536;SDS011;49686;51.880;5.632;2023-07-30T13:56:48;3.85;;;0.98;;
63536;SDS011;49686;51.880;5.632;2023-07-30T13:59:15;4.28;;;0.90;;
63536;SDS011;49686;51.880;5.632;2023-07-30T14:01:42;5.32;;;1.00;;
63536;SDS011;49686;51.880;5.632;2023-07-30T14:04:09;2.80;;;0.93;;
63536;SDS011;49686;51.880;5.632;2023-07-30T14:06:36;4.45;;;0.88;;
63536;SDS011;49686;51.880;5.632;2023-07-30T14:09:03;4.32;;;1.17;;
63536;SDS011;49686;51.880;5.632;2023-07-30T14:11:30;3.47;;;0.77;;
63536;SDS011;49686;51.880;5.632;2023-07-30T14:13:58;3.53;;;0.90;;
63536;SDS011;49686;51.880;5.632;2023-07-30T14:16:25;3.28;;;1.15;;
63536;SDS011;49686;51.880;5.632;2023-07-30T14:18:54;3.33;;;0.90;;
63536;SDS011;49686;51.880;5.632;2023-07-30T14:21:21;3.25;;;1.20;;
63536;SDS011;49686;51.880;5.632;2023-07-30T14:23:48;2.88;;;0.80;;
63536;SDS011;49686;51.880;5.632;2023-07-30T14:26:15;3.08;;;1.20;;
63536;SDS011;49686;51.880;5.632;2023-07-30T14:28:42;4.18;;;1.05;;
63536;SDS011;49686;51.880;5.632;2023-07-30T14:31:10;4.28;;;0.82;;
63536;SDS011;49686;51.880;5.632;2023-07-30T14:33:37;3.70;;;1.00;;
63536;SDS011;49686;51.880;5.632;2023-07-30T14:36:04;4.07;;;1.08;;
63536;SDS011;49686;51.880;5.632;2023-07-30T14:38:31;4.38;;;1.00;;
63536;SDS011;49686;51.880;5.632;2023-07-30T14:40:58;6.95;;;1.20;;
63536;SDS011;49686;51.880;5.632;2023-07-30T14:43:26;4.75;;;1.17;;
63536;SDS011;49686;51.880;5.632;2023-07-30T14:45:53;4.65;;;1.30;;
63536;SDS011;49686;51.880;5.632;2023-07-30T14:48:21;5.38;;;1.20;;
63536;SDS011;49686;51.880;5.632;2023-07-30T14:50:48;5.40;;;1.27;;
63536;SDS011;49686;51.880;5.632;2023-07-30T14:53:15;5.57;;;1.40;;